Google Maps JavaScript API Example
Pilot Flight Report # 92778 Submitted by : AST154 on 2019-03-14
Date: 2019-03-14Aircraft: Boeing 737-800
Flight No.: AST0816Distance (Nm): 224.19
Departure: KSTL - Lambert-St Louis IntlDestination: KORD - Chicago-O'Hare International
 TimeFuelWeightSpeeds  
Out (Taxi)1405Z15281 lbs123842 lbs Flight RulesIFR
Off (Takeoff)1417Z 123013 lbs187 ktsFlight Level33000
On (Landing)1527Z 114863 lbs114 ktsVSTD-327 ft/min
In (Ramp)1533Z5895 lbs114454 lbs ZFW108560 lbs
Flight1.20  -  1:108146 lbs  Pax0
Block1.47  -  1:289386 lbs  Cargo0
Departure WeatherKSTL 141358Z 18005KT 4SM OVC010 12/11 A2985
Destination WeatherKORD 141533Z 27407KT 50SM BKN031 15/9 A2981
Flight CommentsGreat flight...